sensor_id;sensor_type;location;lat;lon;timestamp;P1;durP1;ratioP1;P2;durP2;ratioP2
43070;SDS011;36278;47.952;21.714;2023-04-06T00:00:42;11.27;;;6.10;;
43070;SDS011;36278;47.952;21.714;2023-04-06T00:03:08;8.97;;;6.07;;
43070;SDS011;36278;47.952;21.714;2023-04-06T00:05:33;10.30;;;6.03;;
43070;SDS011;36278;47.952;21.714;2023-04-06T00:07:59;9.20;;;6.00;;
43070;SDS011;36278;47.952;21.714;2023-04-06T00:10:24;8.67;;;5.60;;
43070;SDS011;36278;47.952;21.714;2023-04-06T00:12:50;10.47;;;6.27;;
43070;SDS011;36278;47.952;21.714;2023-04-06T00:15:15;11.63;;;6.70;;
43070;SDS011;36278;47.952;21.714;2023-04-06T00:17:41;11.27;;;6.17;;
43070;SDS011;36278;47.952;21.714;2023-04-06T00:20:06;10.70;;;5.60;;
43070;SDS011;36278;47.952;21.714;2023-04-06T00:22:33;11.63;;;6.60;;
43070;SDS011;36278;47.952;21.714;2023-04-06T00:24:58;10.03;;;5.73;;
43070;SDS011;36278;47.952;21.714;2023-04-06T00:27:24;13.70;;;6.77;;
43070;SDS011;36278;47.952;21.714;2023-04-06T00:29:50;11.93;;;6.37;;
43070;SDS011;36278;47.952;21.714;2023-04-06T00:32:15;11.17;;;6.27;;
43070;SDS011;36278;47.952;21.714;2023-04-06T00:34:41;10.93;;;6.27;;
43070;SDS011;36278;47.952;21.714;2023-04-06T00:37:06;10.80;;;6.10;;
43070;SDS011;36278;47.952;21.714;2023-04-06T00:39:32;10.20;;;6.17;;
43070;SDS011;36278;47.952;21.714;2023-04-06T00:41:57;9.33;;;5.77;;
43070;SDS011;36278;47.952;21.714;2023-04-06T00:44:23;10.20;;;6.43;;
43070;SDS011;36278;47.952;21.714;2023-04-06T00:46:49;9.80;;;5.87;;
43070;SDS011;36278;47.952;21.714;2023-04-06T00:49:14;10.27;;;5.67;;
43070;SDS011;36278;47.952;21.714;2023-04-06T00:51:40;8.57;;;6.03;;
43070;SDS011;36278;47.952;21.714;2023-04-06T00:54:05;9.57;;;6.43;;
43070;SDS011;36278;47.952;21.714;2023-04-06T00:56:31;10.20;;;5.23;;
43070;SDS011;36278;47.952;21.714;2023-04-06T00:58:57;9.67;;;5.80;;
43070;SDS011;36278;47.952;21.714;2023-04-06T01:01:23;9.50;;;5.17;;
43070;SDS011;36278;47.952;21.714;2023-04-06T01:03:49;9.27;;;5.67;;
43070;SDS011;36278;47.952;21.714;2023-04-06T01:06:15;9.17;;;5.90;;
43070;SDS011;36278;47.952;21.714;2023-04-06T01:08:41;10.57;;;6.20;;
43070;SDS011;36278;47.952;21.714;2023-04-06T01:11:06;9.37;;;5.50;;
43070;SDS011;36278;47.952;21.714;2023-04-06T01:13:32;8.47;;;5.23;;
43070;SDS011;36278;47.952;21.714;2023-04-06T01:15:57;9.83;;;5.83;;
43070;SDS011;36278;47.952;21.714;2023-04-06T01:18:26;9.67;;;5.43;;
43070;SDS011;36278;47.952;21.714;2023-04-06T01:20:52;9.93;;;5.53;;
43070;SDS011;36278;47.952;21.714;2023-04-06T01:23:18;9.43;;;6.13;;
43070;SDS011;36278;47.952;21.714;2023-04-06T01:25:44;10.33;;;6.23;;
43070;SDS011;36278;47.952;21.714;2023-04-06T01:28:09;10.07;;;5.43;;
43070;SDS011;36278;47.952;21.714;2023-04-06T01:30:35;9.07;;;5.70;;
43070;SDS011;36278;47.952;21.714;2023-04-06T01:33:00;8.47;;;5.13;;
43070;SDS011;36278;47.952;21.714;2023-04-06T01:35:26;9.50;;;5.83;;
43070;SDS011;36278;47.952;21.714;2023-04-06T01:37:52;8.97;;;5.53;;
43070;SDS011;36278;47.952;21.714;2023-04-06T01:40:18;9.07;;;5.10;;
43070;SDS011;36278;47.952;21.714;2023-04-06T01:42:43;9.80;;;5.43;;
43070;SDS011;36278;47.952;21.714;2023-04-06T01:45:09;8.67;;;5.20;;
43070;SDS011;36278;47.952;21.714;2023-04-06T01:47:35;10.13;;;5.50;;
43070;SDS011;36278;47.952;21.714;2023-04-06T01:50:00;9.77;;;5.40;;
43070;SDS011;36278;47.952;21.714;2023-04-06T01:52:27;9.97;;;5.63;;
43070;SDS011;36278;47.952;21.714;2023-04-06T01:54:53;8.10;;;4.90;;
43070;SDS011;36278;47.952;21.714;2023-04-06T01:57:19;9.30;;;5.77;;
43070;SDS011;36278;47.952;21.714;2023-04-06T01:59:45;8.17;;;5.50;;
43070;SDS011;36278;47.952;21.714;2023-04-06T02:02:10;9.93;;;5.37;;
43070;SDS011;36278;47.952;21.714;2023-04-06T02:04:37;10.03;;;6.27;;
43070;SDS011;36278;47.952;21.714;2023-04-06T02:07:03;8.77;;;5.50;;
43070;SDS011;36278;47.952;21.714;2023-04-06T02:09:29;9.63;;;5.50;;
43070;SDS011;36278;47.952;21.714;2023-04-06T02:11:54;10.27;;;6.07;;
43070;SDS011;36278;47.952;21.714;2023-04-06T02:14:20;9.40;;;5.87;;
43070;SDS011;36278;47.952;21.714;2023-04-06T02:16:46;9.43;;;5.37;;
43070;SDS011;36278;47.952;21.714;2023-04-06T02:19:11;8.80;;;5.90;;
43070;SDS011;36278;47.952;21.714;2023-04-06T02:21:37;12.23;;;6.33;;
43070;SDS011;36278;47.952;21.714;2023-04-06T02:24:03;8.53;;;5.63;;
43070;SDS011;36278;47.952;21.714;2023-04-06T02:26:28;11.13;;;6.30;;
43070;SDS011;36278;47.952;21.714;2023-04-06T02:28:54;10.53;;;5.70;;
43070;SDS011;36278;47.952;21.714;2023-04-06T02:31:20;11.63;;;6.40;;
43070;SDS011;36278;47.952;21.714;2023-04-06T02:33:45;12.67;;;6.23;;
43070;SDS011;36278;47.952;21.714;2023-04-06T02:36:11;9.67;;;5.97;;
43070;SDS011;36278;47.952;21.714;2023-04-06T02:38:36;13.13;;;6.13;;
43070;SDS011;36278;47.952;21.714;2023-04-06T02:41:01;11.87;;;6.50;;
43070;SDS011;36278;47.952;21.714;2023-04-06T02:43:27;11.37;;;6.53;;
43070;SDS011;36278;47.952;21.714;2023-04-06T02:45:52;11.93;;;6.53;;
43070;SDS011;36278;47.952;21.714;2023-04-06T02:48:18;11.40;;;6.63;;
43070;SDS011;36278;47.952;21.714;2023-04-06T02:50:43;10.57;;;6.53;;
43070;SDS011;36278;47.952;21.714;2023-04-06T02:53:09;9.97;;;6.87;;
43070;SDS011;36278;47.952;21.714;2023-04-06T02:55:35;11.97;;;6.40;;
43070;SDS011;36278;47.952;21.714;2023-04-06T02:58:00;12.57;;;6.80;;
43070;SDS011;36278;47.952;21.714;2023-04-06T03:00:26;12.47;;;6.87;;
43070;SDS011;36278;47.952;21.714;2023-04-06T03:02:51;13.43;;;7.50;;
43070;SDS011;36278;47.952;21.714;2023-04-06T03:05:17;13.97;;;6.83;;
43070;SDS011;36278;47.952;21.714;2023-04-06T03:07:42;11.47;;;7.27;;
43070;SDS011;36278;47.952;21.714;2023-04-06T03:10:08;11.90;;;7.03;;
43070;SDS011;36278;47.952;21.714;2023-04-06T03:12:34;11.27;;;7.30;;
43070;SDS011;36278;47.952;21.714;2023-04-06T03:15:00;12.57;;;6.93;;
43070;SDS011;36278;47.952;21.714;2023-04-06T03:17:25;13.20;;;6.67;;
43070;SDS011;36278;47.952;21.714;2023-04-06T03:19:51;16.57;;;7.60;;
43070;SDS011;36278;47.952;21.714;2023-04-06T03:22:16;13.20;;;6.83;;
43070;SDS011;36278;47.952;21.714;2023-04-06T03:24:42;11.03;;;6.73;;
43070;SDS011;36278;47.952;21.714;2023-04-06T03:27:07;11.43;;;6.93;;
43070;SDS011;36278;47.952;21.714;2023-04-06T03:29:33;14.80;;;7.70;;
43070;SDS011;36278;47.952;21.714;2023-04-06T03:31:58;11.23;;;6.90;;
43070;SDS011;36278;47.952;21.714;2023-04-06T03:34:24;14.00;;;6.73;;
43070;SDS011;36278;47.952;21.714;2023-04-06T03:36:49;16.53;;;6.90;;
43070;SDS011;36278;47.952;21.714;2023-04-06T03:39:15;12.40;;;7.07;;
43070;SDS011;36278;47.952;21.714;2023-04-06T03:41:40;12.13;;;7.00;;
43070;SDS011;36278;47.952;21.714;2023-04-06T03:44:06;11.13;;;6.63;;
43070;SDS011;36278;47.952;21.714;2023-04-06T03:46:31;16.80;;;7.40;;
43070;SDS011;36278;47.952;21.714;2023-04-06T03:48:57;11.00;;;7.13;;
43070;SDS011;36278;47.952;21.714;2023-04-06T03:51:22;20.00;;;11.87;;
43070;SDS011;36278;47.952;21.714;2023-04-06T03:53:48;14.23;;;7.33;;
43070;SDS011;36278;47.952;21.714;2023-04-06T03:56:13;12.63;;;7.00;;
43070;SDS011;36278;47.952;21.714;2023-04-06T03:58:39;11.93;;;6.60;;
43070;SDS011;36278;47.952;21.714;2023-04-06T04:01:04;11.13;;;6.57;;
43070;SDS011;36278;47.952;21.714;2023-04-06T04:03:30;10.87;;;6.87;;
43070;SDS011;36278;47.952;21.714;2023-04-06T04:05:55;11.57;;;7.57;;
43070;SDS011;36278;47.952;21.714;2023-04-06T04:08:21;11.17;;;6.20;;
43070;SDS011;36278;47.952;21.714;2023-04-06T04:10:46;10.10;;;6.20;;
43070;SDS011;36278;47.952;21.714;2023-04-06T04:13:12;20.23;;;6.37;;
43070;SDS011;36278;47.952;21.714;2023-04-06T04:15:37;10.63;;;5.67;;
43070;SDS011;36278;47.952;21.714;2023-04-06T04:18:03;13.77;;;6.33;;
43070;SDS011;36278;47.952;21.714;2023-04-06T04:20:28;10.60;;;6.00;;
43070;SDS011;36278;47.952;21.714;2023-04-06T04:22:53;12.03;;;6.57;;
43070;SDS011;36278;47.952;21.714;2023-04-06T04:25:19;10.90;;;5.90;;
43070;SDS011;36278;47.952;21.714;2023-04-06T04:27:45;15.37;;;6.57;;
43070;SDS011;36278;47.952;21.714;2023-04-06T04:30:10;13.57;;;6.20;;
43070;SDS011;36278;47.952;21.714;2023-04-06T04:32:36;22.53;;;7.73;;
43070;SDS011;36278;47.952;21.714;2023-04-06T04:35:01;13.73;;;6.73;;
43070;SDS011;36278;47.952;21.714;2023-04-06T04:37:27;16.17;;;6.47;;
43070;SDS011;36278;47.952;21.714;2023-04-06T04:39:52;13.10;;;7.00;;
43070;SDS011;36278;47.952;21.714;2023-04-06T04:42:18;12.13;;;6.97;;
43070;SDS011;36278;47.952;21.714;2023-04-06T04:44:43;9.77;;;7.10;;
43070;SDS011;36278;47.952;21.714;2023-04-06T04:47:08;12.23;;;7.03;;
43070;SDS011;36278;47.952;21.714;2023-04-06T04:49:34;11.43;;;7.33;;
43070;SDS011;36278;47.952;21.714;2023-04-06T04:52:00;10.67;;;7.07;;
43070;SDS011;36278;47.952;21.714;2023-04-06T04:54:25;11.53;;;7.37;;
43070;SDS011;36278;47.952;21.714;2023-04-06T04:56:51;12.80;;;7.83;;
43070;SDS011;36278;47.952;21.714;2023-04-06T04:59:16;16.00;;;8.17;;
43070;SDS011;36278;47.952;21.714;2023-04-06T05:01:42;18.43;;;7.93;;
43070;SDS011;36278;47.952;21.714;2023-04-06T05:04:08;11.63;;;8.10;;
43070;SDS011;36278;47.952;21.714;2023-04-06T05:06:33;12.97;;;7.33;;
43070;SDS011;36278;47.952;21.714;2023-04-06T05:08:58;16.33;;;7.63;;
43070;SDS011;36278;47.952;21.714;2023-04-06T05:11:24;11.77;;;8.27;;
43070;SDS011;36278;47.952;21.714;2023-04-06T05:13:51;13.23;;;7.90;;
43070;SDS011;36278;47.952;21.714;2023-04-06T05:16:16;13.97;;;8.07;;
43070;SDS011;36278;47.952;21.714;2023-04-06T05:18:42;12.80;;;8.27;;
43070;SDS011;36278;47.952;21.714;2023-04-06T05:21:07;12.93;;;8.57;;
43070;SDS011;36278;47.952;21.714;2023-04-06T05:23:34;11.98;;;7.55;;
43070;SDS011;36278;47.952;21.714;2023-04-06T05:26:00;16.50;;;8.70;;
43070;SDS011;36278;47.952;21.714;2023-04-06T05:28:25;18.57;;;8.27;;
43070;SDS011;36278;47.952;21.714;2023-04-06T05:30:51;11.37;;;7.90;;
43070;SDS011;36278;47.952;21.714;2023-04-06T05:33:16;12.77;;;7.93;;
43070;SDS011;36278;47.952;21.714;2023-04-06T05:35:42;12.10;;;8.67;;
43070;SDS011;36278;47.952;21.714;2023-04-06T05:38:08;15.00;;;9.43;;
43070;SDS011;36278;47.952;21.714;2023-04-06T05:40:35;14.35;;;9.23;;
43070;SDS011;36278;47.952;21.714;2023-04-06T05:43:01;13.02;;;7.93;;
43070;SDS011;36278;47.952;21.714;2023-04-06T05:45:27;12.43;;;8.93;;
43070;SDS011;36278;47.952;21.714;2023-04-06T05:47:52;14.50;;;9.20;;
43070;SDS011;36278;47.952;21.714;2023-04-06T05:50:18;14.07;;;8.53;;
43070;SDS011;36278;47.952;21.714;2023-04-06T05:52:44;13.80;;;9.40;;
43070;SDS011;36278;47.952;21.714;2023-04-06T05:55:11;12.95;;;8.38;;
43070;SDS011;36278;47.952;21.714;2023-04-06T05:57:37;17.67;;;9.33;;
43070;SDS011;36278;47.952;21.714;2023-04-06T06:00:03;14.70;;;9.70;;
43070;SDS011;36278;47.952;21.714;2023-04-06T06:02:31;13.93;;;8.60;;
43070;SDS011;36278;47.952;21.714;2023-04-06T06:04:57;12.87;;;9.20;;
43070;SDS011;36278;47.952;21.714;2023-04-06T06:07:23;17.25;;;9.20;;
43070;SDS011;36278;47.952;21.714;2023-04-06T06:09:48;15.00;;;9.27;;
43070;SDS011;36278;47.952;21.714;2023-04-06T06:12:14;11.47;;;8.57;;
43070;SDS011;36278;47.952;21.714;2023-04-06T06:14:40;13.33;;;8.57;;
43070;SDS011;36278;47.952;21.714;2023-04-06T06:17:05;11.70;;;8.67;;
43070;SDS011;36278;47.952;21.714;2023-04-06T06:19:30;12.77;;;9.03;;
43070;SDS011;36278;47.952;21.714;2023-04-06T06:21:56;12.67;;;8.90;;
43070;SDS011;36278;47.952;21.714;2023-04-06T06:24:21;14.87;;;8.50;;
43070;SDS011;36278;47.952;21.714;2023-04-06T06:26:47;11.97;;;7.37;;
43070;SDS011;36278;47.952;21.714;2023-04-06T06:29:13;15.98;;;9.00;;
43070;SDS011;36278;47.952;21.714;2023-04-06T06:31:39;13.27;;;8.40;;
43070;SDS011;36278;47.952;21.714;2023-04-06T06:34:05;14.03;;;8.73;;
43070;SDS011;36278;47.952;21.714;2023-04-06T06:36:31;12.60;;;9.40;;
43070;SDS011;36278;47.952;21.714;2023-04-06T06:38:57;12.80;;;8.77;;
43070;SDS011;36278;47.952;21.714;2023-04-06T06:41:25;16.02;;;9.73;;
43070;SDS011;36278;47.952;21.714;2023-04-06T06:43:51;14.23;;;9.48;;
43070;SDS011;36278;47.952;21.714;2023-04-06T06:46:16;15.27;;;8.97;;
43070;SDS011;36278;47.952;21.714;2023-04-06T06:48:42;18.37;;;10.07;;
43070;SDS011;36278;47.952;21.714;2023-04-06T06:51:08;13.83;;;9.00;;
43070;SDS011;36278;47.952;21.714;2023-04-06T06:53:34;13.90;;;9.00;;
43070;SDS011;36278;47.952;21.714;2023-04-06T06:56:00;12.57;;;8.90;;
43070;SDS011;36278;47.952;21.714;2023-04-06T06:58:25;13.90;;;8.80;;
43070;SDS011;36278;47.952;21.714;2023-04-06T07:00:55;12.97;;;8.87;;
43070;SDS011;36278;47.952;21.714;2023-04-06T07:03:23;16.67;;;9.45;;
43070;SDS011;36278;47.952;21.714;2023-04-06T07:05:49;12.07;;;8.63;;
43070;SDS011;36278;47.952;21.714;2023-04-06T07:08:21;13.63;;;8.98;;
43070;SDS011;36278;47.952;21.714;2023-04-06T07:10:49;12.75;;;9.00;;
43070;SDS011;36278;47.952;21.714;2023-04-06T07:13:17;11.80;;;8.35;;
43070;SDS011;36278;47.952;21.714;2023-04-06T07:15:47;16.73;;;7.45;;
43070;SDS011;36278;47.952;21.714;2023-04-06T07:18:13;13.52;;;8.40;;
43070;SDS011;36278;47.952;21.714;2023-04-06T07:20:39;12.00;;;8.23;;
43070;SDS011;36278;47.952;21.714;2023-04-06T07:23:05;11.40;;;8.37;;
43070;SDS011;36278;47.952;21.714;2023-04-06T07:25:30;13.00;;;9.13;;
43070;SDS011;36278;47.952;21.714;2023-04-06T07:27:56;10.63;;;8.33;;
43070;SDS011;36278;47.952;21.714;2023-04-06T07:30:21;13.40;;;8.90;;
43070;SDS011;36278;47.952;21.714;2023-04-06T07:32:47;12.30;;;8.47;;
43070;SDS011;36278;47.952;21.714;2023-04-06T07:35:14;10.43;;;8.13;;
43070;SDS011;36278;47.952;21.714;2023-04-06T07:37:39;11.35;;;8.52;;
43070;SDS011;36278;47.952;21.714;2023-04-06T07:40:05;10.97;;;9.07;;
43070;SDS011;36278;47.952;21.714;2023-04-06T07:42:31;12.90;;;9.27;;
43070;SDS011;36278;47.952;21.714;2023-04-06T07:44:58;12.38;;;9.02;;
43070;SDS011;36278;47.952;21.714;2023-04-06T07:47:23;14.33;;;9.63;;
43070;SDS011;36278;47.952;21.714;2023-04-06T07:49:49;14.03;;;9.63;;
43070;SDS011;36278;47.952;21.714;2023-04-06T07:52:15;16.17;;;10.63;;
43070;SDS011;36278;47.952;21.714;2023-04-06T07:54:41;15.43;;;10.13;;
43070;SDS011;36278;47.952;21.714;2023-04-06T07:57:07;14.85;;;10.40;;
43070;SDS011;36278;47.952;21.714;2023-04-06T07:59:32;13.50;;;9.37;;
43070;SDS011;36278;47.952;21.714;2023-04-06T08:01:58;13.07;;;10.23;;
43070;SDS011;36278;47.952;21.714;2023-04-06T08:04:23;12.73;;;8.97;;
43070;SDS011;36278;47.952;21.714;2023-04-06T08:06:49;13.97;;;9.80;;
43070;SDS011;36278;47.952;21.714;2023-04-06T08:09:15;14.73;;;10.30;;
43070;SDS011;36278;47.952;21.714;2023-04-06T08:11:40;13.70;;;9.97;;
43070;SDS011;36278;47.952;21.714;2023-04-06T08:14:06;14.73;;;9.97;;
43070;SDS011;36278;47.952;21.714;2023-04-06T08:16:31;13.63;;;10.17;;
43070;SDS011;36278;47.952;21.714;2023-04-06T08:18:57;16.13;;;10.57;;
43070;SDS011;36278;47.952;21.714;2023-04-06T08:21:22;14.53;;;10.30;;
43070;SDS011;36278;47.952;21.714;2023-04-06T08:23:48;17.70;;;11.57;;
43070;SDS011;36278;47.952;21.714;2023-04-06T08:26:13;17.37;;;12.50;;
43070;SDS011;36278;47.952;21.714;2023-04-06T08:28:39;15.53;;;11.20;;
43070;SDS011;36278;47.952;21.714;2023-04-06T08:31:05;14.57;;;10.80;;
43070;SDS011;36278;47.952;21.714;2023-04-06T08:33:31;14.55;;;11.02;;
43070;SDS011;36278;47.952;21.714;2023-04-06T08:36:05;17.85;;;11.18;;
43070;SDS011;36278;47.952;21.714;2023-04-06T08:38:32;16.70;;;11.63;;
43070;SDS011;36278;47.952;21.714;2023-04-06T08:40:58;15.33;;;11.67;;
43070;SDS011;36278;47.952;21.714;2023-04-06T08:43:23;15.00;;;11.63;;
43070;SDS011;36278;47.952;21.714;2023-04-06T08:45:52;16.70;;;13.27;;
43070;SDS011;36278;47.952;21.714;2023-04-06T08:48:17;16.10;;;11.83;;
43070;SDS011;36278;47.952;21.714;2023-04-06T08:50:43;16.65;;;11.40;;
43070;SDS011;36278;47.952;21.714;2023-04-06T08:53:10;15.77;;;12.13;;
43070;SDS011;36278;47.952;21.714;2023-04-06T08:55:37;16.15;;;12.73;;
43070;SDS011;36278;47.952;21.714;2023-04-06T08:58:03;14.80;;;11.67;;
43070;SDS011;36278;47.952;21.714;2023-04-06T09:00:33;17.53;;;12.83;;
43070;SDS011;36278;47.952;21.714;2023-04-06T09:03:01;18.20;;;14.40;;
43070;SDS011;36278;47.952;21.714;2023-04-06T09:05:29;18.52;;;13.45;;
43070;SDS011;36278;47.952;21.714;2023-04-06T09:07:55;15.73;;;11.10;;
43070;SDS011;36278;47.952;21.714;2023-04-06T09:10:21;15.73;;;11.07;;
43070;SDS011;36278;47.952;21.714;2023-04-06T09:12:48;15.33;;;11.47;;
43070;SDS011;36278;47.952;21.714;2023-04-06T09:15:20;15.20;;;10.20;;
43070;SDS011;36278;47.952;21.714;2023-04-06T09:17:47;14.80;;;10.00;;
43070;SDS011;36278;47.952;21.714;2023-04-06T09:20:12;13.33;;;9.37;;
43070;SDS011;36278;47.952;21.714;2023-04-06T09:22:38;15.33;;;9.33;;
43070;SDS011;36278;47.952;21.714;2023-04-06T09:25:05;12.73;;;8.87;;
43070;SDS011;36278;47.952;21.714;2023-04-06T09:27:36;10.07;;;7.97;;
43070;SDS011;36278;47.952;21.714;2023-04-06T09:30:03;13.00;;;9.63;;
43070;SDS011;36278;47.952;21.714;2023-04-06T09:32:32;11.67;;;9.33;;
43070;SDS011;36278;47.952;21.714;2023-04-06T09:35:09;13.73;;;9.00;;
43070;SDS011;36278;47.952;21.714;2023-04-06T09:37:35;13.30;;;8.90;;
43070;SDS011;36278;47.952;21.714;2023-04-06T09:40:04;11.30;;;8.57;;
43070;SDS011;36278;47.952;21.714;2023-04-06T09:42:30;13.70;;;9.97;;
43070;SDS011;36278;47.952;21.714;2023-04-06T09:44:56;13.73;;;11.13;;
43070;SDS011;36278;47.952;21.714;2023-04-06T09:47:22;14.57;;;10.80;;
43070;SDS011;36278;47.952;21.714;2023-04-06T09:49:48;14.47;;;11.73;;
43070;SDS011;36278;47.952;21.714;2023-04-06T09:52:15;14.53;;;12.40;;
43070;SDS011;36278;47.952;21.714;2023-04-06T09:54:43;16.63;;;12.33;;
43070;SDS011;36278;47.952;21.714;2023-04-06T09:57:11;16.30;;;12.10;;
43070;SDS011;36278;47.952;21.714;2023-04-06T10:00:05;15.37;;;12.27;;
43070;SDS011;36278;47.952;21.714;2023-04-06T10:05:22;13.77;;;11.07;;
43070;SDS011;36278;47.952;21.714;2023-04-06T10:08:06;13.50;;;10.23;;
43070;SDS011;36278;47.952;21.714;2023-04-06T10:10:37;14.10;;;11.10;;
43070;SDS011;36278;47.952;21.714;2023-04-06T10:13:03;15.00;;;11.73;;
43070;SDS011;36278;47.952;21.714;2023-04-06T10:15:30;16.53;;;12.90;;
43070;SDS011;36278;47.952;21.714;2023-04-06T10:17:57;15.20;;;11.63;;
43070;SDS011;36278;47.952;21.714;2023-04-06T10:20:33;13.70;;;9.27;;
43070;SDS011;36278;47.952;21.714;2023-04-06T10:23:06;10.93;;;8.63;;
43070;SDS011;36278;47.952;21.714;2023-04-06T10:25:39;11.20;;;9.30;;
43070;SDS011;36278;47.952;21.714;2023-04-06T10:28:05;12.47;;;8.63;;
43070;SDS011;36278;47.952;21.714;2023-04-06T10:30:32;11.63;;;8.87;;
43070;SDS011;36278;47.952;21.714;2023-04-06T10:32:58;11.90;;;9.30;;
43070;SDS011;36278;47.952;21.714;2023-04-06T10:35:35;11.73;;;8.80;;
43070;SDS011;36278;47.952;21.714;2023-04-06T10:38:03;11.27;;;8.80;;
43070;SDS011;36278;47.952;21.714;2023-04-06T10:40:30;11.73;;;8.23;;
43070;SDS011;36278;47.952;21.714;2023-04-06T10:43:11;12.07;;;8.87;;
43070;SDS011;36278;47.952;21.714;2023-04-06T10:45:54;13.00;;;8.33;;
43070;SDS011;36278;47.952;21.714;2023-04-06T10:48:21;13.13;;;9.30;;
43070;SDS011;36278;47.952;21.714;2023-04-06T10:50:47;12.33;;;9.13;;
43070;SDS011;36278;47.952;21.714;2023-04-06T10:53:24;13.30;;;8.83;;
43070;SDS011;36278;47.952;21.714;2023-04-06T10:55:51;11.77;;;8.07;;
43070;SDS011;36278;47.952;21.714;2023-04-06T10:58:19;12.20;;;8.80;;
43070;SDS011;36278;47.952;21.714;2023-04-06T11:00:48;10.90;;;8.07;;
43070;SDS011;36278;47.952;21.714;2023-04-06T11:03:15;13.23;;;8.93;;
43070;SDS011;36278;47.952;21.714;2023-04-06T11:05:44;13.10;;;8.53;;
43070;SDS011;36278;47.952;21.714;2023-04-06T11:08:21;13.33;;;8.50;;
43070;SDS011;36278;47.952;21.714;2023-04-06T11:11:12;17.93;;;11.03;;
43070;SDS011;36278;47.952;21.714;2023-04-06T11:13:51;13.47;;;8.50;;
43070;SDS011;36278;47.952;21.714;2023-04-06T11:16:21;12.77;;;8.80;;
43070;SDS011;36278;47.952;21.714;2023-04-06T11:19:13;11.50;;;9.10;;
43070;SDS011;36278;47.952;21.714;2023-04-06T11:21:39;12.03;;;8.43;;
43070;SDS011;36278;47.952;21.714;2023-04-06T11:26:44;12.67;;;9.27;;
43070;SDS011;36278;47.952;21.714;2023-04-06T11:29:20;15.47;;;9.70;;
43070;SDS011;36278;47.952;21.714;2023-04-06T11:31:54;13.67;;;9.00;;
43070;SDS011;36278;47.952;21.714;2023-04-06T11:34:24;11.77;;;8.47;;
43070;SDS011;36278;47.952;21.714;2023-04-06T11:36:57;11.67;;;8.97;;
43070;SDS011;36278;47.952;21.714;2023-04-06T11:39:25;13.17;;;8.80;;
43070;SDS011;36278;47.952;21.714;2023-04-06T11:41:53;10.83;;;8.33;;
43070;SDS011;36278;47.952;21.714;2023-04-06T11:44:36;11.60;;;8.30;;
43070;SDS011;36278;47.952;21.714;2023-04-06T11:47:04;11.10;;;8.18;;
43070;SDS011;36278;47.952;21.714;2023-04-06T11:49:32;12.33;;;9.03;;
43070;SDS011;36278;47.952;21.714;2023-04-06T11:51:59;12.83;;;8.93;;
43070;SDS011;36278;47.952;21.714;2023-04-06T11:57:03;13.30;;;9.10;;
43070;SDS011;36278;47.952;21.714;2023-04-06T11:59:30;10.50;;;8.47;;
43070;SDS011;36278;47.952;21.714;2023-04-06T12:01:58;12.63;;;8.37;;
43070;SDS011;36278;47.952;21.714;2023-04-06T12:04:24;12.63;;;8.60;;
43070;SDS011;36278;47.952;21.714;2023-04-06T12:06:49;14.23;;;8.40;;
43070;SDS011;36278;47.952;21.714;2023-04-06T12:09:16;14.23;;;8.97;;
43070;SDS011;36278;47.952;21.714;2023-04-06T12:11:45;12.87;;;8.63;;
43070;SDS011;36278;47.952;21.714;2023-04-06T12:14:11;12.00;;;8.50;;
43070;SDS011;36278;47.952;21.714;2023-04-06T12:16:37;12.67;;;8.73;;
43070;SDS011;36278;47.952;21.714;2023-04-06T12:19:02;12.13;;;9.33;;
43070;SDS011;36278;47.952;21.714;2023-04-06T12:21:28;11.33;;;8.67;;
43070;SDS011;36278;47.952;21.714;2023-04-06T12:23:56;11.57;;;8.43;;
43070;SDS011;36278;47.952;21.714;2023-04-06T12:26:22;11.23;;;8.63;;
43070;SDS011;36278;47.952;21.714;2023-04-06T12:28:47;12.40;;;8.70;;
43070;SDS011;36278;47.952;21.714;2023-04-06T12:31:20;11.77;;;9.13;;
43070;SDS011;36278;47.952;21.714;2023-04-06T12:33:48;14.03;;;9.80;;
43070;SDS011;36278;47.952;21.714;2023-04-06T12:36:16;16.03;;;12.87;;
43070;SDS011;36278;47.952;21.714;2023-04-06T12:38:49;13.27;;;9.50;;
43070;SDS011;36278;47.952;21.714;2023-04-06T12:41:15;14.40;;;9.47;;
43070;SDS011;36278;47.952;21.714;2023-04-06T12:43:42;11.50;;;8.87;;
43070;SDS011;36278;47.952;21.714;2023-04-06T12:46:08;12.03;;;8.73;;
43070;SDS011;36278;47.952;21.714;2023-04-06T12:48:34;12.50;;;9.67;;
43070;SDS011;36278;47.952;21.714;2023-04-06T12:51:01;12.30;;;9.90;;
43070;SDS011;36278;47.952;21.714;2023-04-06T12:53:28;13.90;;;9.40;;
43070;SDS011;36278;47.952;21.714;2023-04-06T12:55:54;12.07;;;9.03;;
43070;SDS011;36278;47.952;21.714;2023-04-06T12:58:21;11.53;;;9.27;;
43070;SDS011;36278;47.952;21.714;2023-04-06T13:00:47;12.70;;;9.07;;
43070;SDS011;36278;47.952;21.714;2023-04-06T13:03:13;13.87;;;9.47;;
43070;SDS011;36278;47.952;21.714;2023-04-06T13:05:45;11.17;;;9.03;;
43070;SDS011;36278;47.952;21.714;2023-04-06T13:08:12;15.23;;;9.90;;
43070;SDS011;36278;47.952;21.714;2023-04-06T13:10:38;14.47;;;9.47;;
43070;SDS011;36278;47.952;21.714;2023-04-06T13:13:04;12.77;;;9.37;;
43070;SDS011;36278;47.952;21.714;2023-04-06T13:15:29;10.87;;;9.37;;
43070;SDS011;36278;47.952;21.714;2023-04-06T13:17:57;15.03;;;10.10;;
43070;SDS011;36278;47.952;21.714;2023-04-06T13:20:22;13.57;;;10.30;;
43070;SDS011;36278;47.952;21.714;2023-04-06T13:22:49;13.03;;;9.73;;
43070;SDS011;36278;47.952;21.714;2023-04-06T13:25:15;12.13;;;9.40;;
43070;SDS011;36278;47.952;21.714;2023-04-06T13:27:40;13.33;;;10.40;;
43070;SDS011;36278;47.952;21.714;2023-04-06T13:30:09;15.80;;;10.83;;
43070;SDS011;36278;47.952;21.714;2023-04-06T13:32:34;12.63;;;10.50;;
43070;SDS011;36278;47.952;21.714;2023-04-06T13:35:01;14.90;;;11.00;;
43070;SDS011;36278;47.952;21.714;2023-04-06T13:37:28;14.33;;;10.40;;
43070;SDS011;36278;47.952;21.714;2023-04-06T13:39:53;15.40;;;11.23;;
43070;SDS011;36278;47.952;21.714;2023-04-06T13:42:19;14.50;;;11.57;;
43070;SDS011;36278;47.952;21.714;2023-04-06T13:44:44;17.40;;;11.70;;
43070;SDS011;36278;47.952;21.714;2023-04-06T13:47:12;15.10;;;11.67;;
43070;SDS011;36278;47.952;21.714;2023-04-06T13:49:37;13.97;;;10.93;;
43070;SDS011;36278;47.952;21.714;2023-04-06T13:52:03;14.47;;;10.50;;
43070;SDS011;36278;47.952;21.714;2023-04-06T13:54:28;16.97;;;11.50;;
43070;SDS011;36278;47.952;21.714;2023-04-06T13:56:54;13.83;;;11.30;;
43070;SDS011;36278;47.952;21.714;2023-04-06T13:59:20;14.83;;;11.13;;
43070;SDS011;36278;47.952;21.714;2023-04-06T14:01:45;14.30;;;11.57;;
43070;SDS011;36278;47.952;21.714;2023-04-06T14:04:11;15.17;;;10.40;;
43070;SDS011;36278;47.952;21.714;2023-04-06T14:06:36;14.87;;;11.03;;
43070;SDS011;36278;47.952;21.714;2023-04-06T14:09:02;14.53;;;10.83;;
43070;SDS011;36278;47.952;21.714;2023-04-06T14:11:27;14.90;;;11.63;;
43070;SDS011;36278;47.952;21.714;2023-04-06T14:13:53;14.73;;;11.40;;
43070;SDS011;36278;47.952;21.714;2023-04-06T14:16:18;13.90;;;10.30;;
43070;SDS011;36278;47.952;21.714;2023-04-06T14:18:45;16.23;;;11.47;;
43070;SDS011;36278;47.952;21.714;2023-04-06T14:21:11;13.73;;;10.47;;
43070;SDS011;36278;47.952;21.714;2023-04-06T14:23:39;13.87;;;10.33;;
43070;SDS011;36278;47.952;21.714;2023-04-06T14:26:06;14.93;;;10.97;;